TimeCST,TemperatureF,Dew PointF,Humidity,Sea Level PressureIn,VisibilityMPH,Wind Direction,Wind SpeedMPH,Gust SpeedMPH,PrecipitationIn,Events,Conditions,WindDirDegrees,DateUTC
12:14 AM,12.2,8.6,85,29.92,10.0,SSW,6.9,-,N/A,,Clear,210,2013-01-04 06:14:00
12:35 AM,12.2,8.6,85,29.93,10.0,SW,8.1,-,N/A,,Clear,220,2013-01-04 06:35:00
12:54 AM,12.2,8.6,85,29.93,10.0,SSW,6.9,-,N/A,,Clear,210,2013-01-04 06:54:00
1:14 AM,12.2,8.6,85,29.93,10.0,SSW,6.9,-,N/A,,Clear,210,2013-01-04 07:14:00
1:35 AM,10.4,6.8,85,29.93,10.0,SW,6.9,-,N/A,,Clear,220,2013-01-04 07:35:00
1:54 AM,10.4,6.8,85,29.93,10.0,SSW,6.9,-,N/A,,Clear,210,2013-01-04 07:54:00
2:15 AM,10.4,6.8,85,29.93,10.0,SSW,5.8,-,N/A,,Clear,210,2013-01-04 08:15:00
2:35 AM,10.4,6.8,85,29.93,10.0,SSW,6.9,-,N/A,,Clear,210,2013-01-04 08:35:00
2:54 AM,10.4,6.8,85,29.94,10.0,SW,6.9,-,N/A,,Clear,220,2013-01-04 08:54:00
3:14 AM,10.4,6.8,85,29.95,10.0,SW,6.9,-,N/A,,Clear,220,2013-01-04 09:14:00
3:35 AM,10.4,8.6,92,29.95,10.0,SW,8.1,-,N/A,,Clear,220,2013-01-04 09:35:00
3:54 AM,10.4,8.6,92,29.95,10.0,SSW,6.9,-,N/A,,Clear,210,2013-01-04 09:54:00
4:14 AM,10.4,8.6,92,29.95,10.0,SSW,5.8,-,N/A,,Clear,210,2013-01-04 10:14:00
4:54 AM,6.8,3.2,85,29.96,10.0,South,3.5,-,N/A,,Clear,190,2013-01-04 10:54:00
5:15 AM,6.8,3.2,85,29.97,10.0,South,3.5,-,N/A,,Clear,170,2013-01-04 11:15:00
5:35 AM,6.8,3.2,85,29.97,10.0,SSW,3.5,-,N/A,,Clear,200,2013-01-04 11:35:00
5:54 AM,6.8,3.2,85,29.98,10.0,SSW,3.5,-,N/A,,Clear,200,2013-01-04 11:54:00
6:15 AM,5.0,1.4,85,29.98,10.0,SSW,3.5,-,N/A,,Clear,200,2013-01-04 12:15:00
6:35 AM,6.8,3.2,85,29.99,10.0,South,4.6,-,N/A,,Clear,190,2013-01-04 12:35:00
6:54 AM,5.0,1.4,85,29.99,10.0,South,4.6,-,N/A,,Clear,180,2013-01-04 12:54:00
7:15 AM,5.0,1.4,85,29.99,10.0,SSW,4.6,-,N/A,,Clear,200,2013-01-04 13:15:00
7:34 AM,5.0,1.4,85,29.99,10.0,South,3.5,-,N/A,,Clear,180,2013-01-04 13:34:00
7:54 AM,5.0,1.4,85,30.00,10.0,South,4.6,-,N/A,,Clear,180,2013-01-04 13:54:00
8:15 AM,5.0,1.4,85,30.01,10.0,South,4.6,-,N/A,,Clear,190,2013-01-04 14:15:00
8:34 AM,3.2,-0.4,85,30.01,10.0,South,3.5,-,N/A,,Clear,180,2013-01-04 14:34:00
8:54 AM,3.2,1.4,92,30.02,10.0,South,3.5,-,N/A,,Clear,180,2013-01-04 14:54:00
9:15 AM,5.0,1.4,85,30.03,10.0,South,4.6,-,N/A,,Clear,180,2013-01-04 15:15:00
9:34 AM,6.8,3.2,85,30.04,10.0,SSE,4.6,-,N/A,,Clear,160,2013-01-04 15:34:00
9:54 AM,8.6,5.0,85,30.04,10.0,SSE,4.6,-,N/A,,Clear,150,2013-01-04 15:54:00
10:15 AM,10.4,6.8,85,30.06,10.0,SSE,3.5,-,N/A,,Clear,160,2013-01-04 16:15:00
10:34 AM,12.2,10.4,92,30.06,10.0,SSE,3.5,-,N/A,,Clear,160,2013-01-04 16:34:00
10:54 AM,15.8,10.4,79,30.07,10.0,Calm,Calm,-,N/A,,Clear,0,2013-01-04 16:54:00
11:15 AM,17.6,12.2,79,30.07,10.0,South,3.5,-,N/A,,Clear,180,2013-01-04 17:15:00
11:34 AM,19.4,15.8,86,30.07,10.0,SW,4.6,-,N/A,,Clear,220,2013-01-04 17:34:00
11:55 AM,21.2,15.8,80,30.08,10.0,West,5.8,-,N/A,,Clear,270,2013-01-04 17:55:00
12:15 PM,23.0,17.6,80,30.07,10.0,NW,4.6,-,N/A,,Clear,310,2013-01-04 18:15:00
12:34 PM,24.8,17.6,74,30.07,10.0,North,4.6,-,N/A,,Clear,360,2013-01-04 18:34:00
12:55 PM,24.8,17.6,74,30.07,10.0,North,6.9,-,N/A,,Clear,360,2013-01-04 18:55:00
1:15 PM,24.8,17.6,74,30.06,10.0,North,6.9,-,N/A,,Clear,10,2013-01-04 19:15:00
1:34 PM,24.8,17.6,74,30.06,10.0,North,5.8,-,N/A,,Clear,10,2013-01-04 19:34:00
1:55 PM,24.8,17.6,74,30.06,10.0,North,5.8,-,N/A,,Clear,10,2013-01-04 19:55:00
2:15 PM,24.8,17.6,74,30.07,10.0,North,3.5,-,N/A,,Clear,10,2013-01-04 20:15:00
2:34 PM,24.8,17.6,74,30.07,10.0,North,4.6,-,N/A,,Clear,350,2013-01-04 20:34:00
2:55 PM,24.8,17.6,74,30.08,10.0,Calm,Calm,-,N/A,,Clear,0,2013-01-04 20:55:00
3:14 PM,24.8,17.6,74,30.09,10.0,NW,3.5,-,N/A,,Clear,320,2013-01-04 21:14:00
3:34 PM,24.8,19.4,80,30.08,10.0,NNW,3.5,-,N/A,,Clear,330,2013-01-04 21:34:00
3:55 PM,23.0,19.4,86,30.09,10.0,North,3.5,-,N/A,,Clear,360,2013-01-04 21:55:00
4:14 PM,23.0,17.6,80,30.08,10.0,NE,3.5,-,N/A,,Clear,40,2013-01-04 22:14:00
4:35 PM,24.8,17.6,74,30.08,10.0,Calm,Calm,-,N/A,,Clear,0,2013-01-04 22:35:00
4:55 PM,23.0,17.6,80,30.09,10.0,Calm,Calm,-,N/A,,Clear,0,2013-01-04 22:55:00
5:14 PM,19.4,15.8,86,30.09,10.0,Calm,Calm,-,N/A,,Clear,0,2013-01-04 23:14:00
5:35 PM,17.6,14.0,86,30.09,10.0,Calm,Calm,-,N/A,,Clear,0,2013-01-04 23:35:00
5:54 PM,17.6,15.8,93,30.10,10.0,Calm,Calm,-,N/A,,Clear,0,2013-01-04 23:54:00
6:14 PM,15.8,15.8,100,30.09,10.0,NNE,3.5,-,N/A,,Clear,20,2013-01-05 00:14:00
6:35 PM,15.8,14.0,93,30.10,10.0,North,4.6,-,N/A,,Clear,360,2013-01-05 00:35:00
6:54 PM,12.2,10.4,92,30.10,10.0,North,4.6,-,N/A,,Clear,360,2013-01-05 00:54:00
7:14 PM,14.0,12.2,93,30.10,10.0,Calm,Calm,-,N/A,,Clear,0,2013-01-05 01:14:00
7:35 PM,17.6,15.8,93,30.10,10.0,NE,3.5,-,N/A,,Clear,50,2013-01-05 01:35:00
7:54 PM,15.8,12.2,86,30.08,10.0,East,3.5,-,N/A,,Clear,80,2013-01-05 01:54:00
8:14 PM,6.8,3.2,85,30.07,10.0,SSE,4.6,-,N/A,,Clear,150,2013-01-05 02:14:00
8:35 PM,8.6,6.8,92,30.07,10.0,SSE,4.6,-,N/A,,Clear,160,2013-01-05 02:35:00
8:54 PM,10.4,8.6,92,30.06,1.0,SSE,6.9,-,N/A,,Mostly Cloudy,150,2013-01-05 02:54:00
9:14 PM,10.4,8.6,92,30.07,7.0,South,4.6,-,N/A,,Scattered Clouds,190,2013-01-05 03:14:00
9:35 PM,8.6,6.8,92,30.07,5.0,South,3.5,-,N/A,,Clear,190,2013-01-05 03:35:00
9:54 PM,10.4,8.6,92,30.06,7.0,SSE,4.6,-,N/A,,Clear,150,2013-01-05 03:54:00
10:14 PM,12.2,10.4,92,30.06,3.0,ESE,3.5,-,N/A,,Clear,120,2013-01-05 04:14:00
10:35 PM,10.4,10.4,100,30.05,5.0,SE,5.8,-,N/A,,Clear,130,2013-01-05 04:35:00
10:54 PM,12.2,10.4,92,30.05,7.0,SE,6.9,-,N/A,,Clear,130,2013-01-05 04:54:00
11:14 PM,8.6,6.8,92,30.05,10.0,East,5.8,-,N/A,,Clear,90,2013-01-05 05:14:00
11:35 PM,10.4,8.6,92,30.04,10.0,ESE,4.6,-,N/A,,Clear,110,2013-01-05 05:35:00
11:54 PM,10.4,8.6,92,30.04,10.0,East,5.8,-,N/A,,Clear,90,2013-01-05 05:54:00